Etusivu
METAR-TAF:

METAR-TAF

Lentoasemat :

Kairouan, Tunisia

Leveyspiiri: 35-40N, Pituuspiiri: 010-06E, korkeus merenpinnasta: 60 m

Tämänhetkinen sää

Tämä raportti tehtiin 28 minuuttia sitten, kello 00.00 UTC
Tuuli 1 kn idästä/kaakosta
Lämpötila 18°C
Kosteus 64%
Ilmanpaine 1017 hPa
Näkyvyys 10 km tai enemmän
Muutamia pilviä 2300 ft:n korkeudessa

METAR: DTTK 210000Z 11001KT 9999 FEW023 18/11 Q1017

Aika: 01:28 (00:28 UTC)


TAF: puuttuu

Säähavainnot ja -ennusteet yli 4000 lentoasemalta (METAR- ja TAF-raportit).

Käytössä olevat sääasemat on merkitty karttaan keltaisilla ja punaisilla pisteillä.

Aseta hiiri pisteen päälle nähdäksesi sääaseman nimen.

Klikkaa sitten nähdäksesi säähavainnot ja -ennusteet.

Kartan vaihtaminen: klikkaa mustalla rastilla varustettuja vihreitä pisteitä, niin voit zoomata sisään; viivalla varustettua vihreää pistettä, niin voit zoomata ulos tai vihreitä nuolia, niin pääset viereisille kartoille.


METAR-TAF: